Time;durP1;ratioP1;P1;durP2;ratioP2;P2;SDS_P1;SDS_P2;PMS_P1;PMS_P2;Temp;Humidity;BMP_temperature;BMP_pressure;BME280_temperature;BME280_humidity;BME280_pressure;Samples;Min_cycle;Max_cycle;Signal;HPM_P1;HPM_P2
2022/09/29 00:00:21;;;;;;;8.57;7.78;;;9.80;99.90;;;;;;2094086;28;20021;-70
2022/09/29 00:01:22;;;;;;;9.50;8.38;;;9.80;99.90;;;;;;2093147;28;20017;-70
2022/09/29 00:02:22;;;;;;;10.23;8.38;;;9.80;99.90;;;;;;2094377;28;20020;-70
2022/09/29 00:03:24;;;;;;;8.18;7.40;;;9.70;99.90;;;;;;2092294;28;20107;-70
2022/09/29 00:04:24;;;;;;;9.27;8.10;;;9.70;99.90;;;;;;2095165;28;20640;-70
2022/09/29 00:05:25;;;;;;;10.00;9.00;;;9.70;99.90;;;;;;2093524;28;20448;-70
2022/09/29 00:06:25;;;;;;;7.32;6.63;;;9.70;99.90;;;;;;2093697;28;20033;-70
2022/09/29 00:07:28;;;;;;;8.13;6.82;;;9.70;99.90;;;;;;2092479;28;20107;-70
2022/09/29 00:08:30;;;;;;;9.52;8.63;;;9.70;99.90;;;;;;2094077;28;20040;-70
2022/09/29 00:09:31;;;;;;;10.15;8.30;;;9.70;99.90;;;;;;2094380;28;20047;-70
2022/09/29 00:10:31;;;;;;;7.80;7.10;;;9.70;99.90;;;;;;2093173;28;20074;-70
2022/09/29 00:11:32;;;;;;;9.57;8.43;;;9.70;99.90;;;;;;2093739;28;20036;-70
2022/09/29 00:12:32;;;;;;;8.75;7.90;;;9.70;99.90;;;;;;2093589;28;20212;-70
2022/09/29 00:13:33;;;;;;;10.55;9.35;;;9.70;99.90;;;;;;2094923;28;20043;-70
2022/09/29 00:14:34;;;;;;;8.55;7.65;;;9.70;99.90;;;;;;2093972;28;20029;-70
2022/09/29 00:15:34;;;;;;;9.23;8.43;;;9.70;99.90;;;;;;2093455;28;20028;-70
2022/09/29 00:16:35;;;;;;;7.78;7.07;;;9.70;99.90;;;;;;2092760;28;20021;-70
2022/09/29 00:17:35;;;;;;;9.75;8.38;;;9.70;99.90;;;;;;2093932;28;20111;-70
2022/09/29 00:18:36;;;;;;;10.20;9.30;;;9.70;99.90;;;;;;2100661;28;20408;-70
2022/09/29 00:19:37;;;;;;;9.23;8.27;;;9.70;99.90;;;;;;2102550;28;20026;-70
2022/09/29 00:20:38;;;;;;;9.00;7.65;;;9.70;99.90;;;;;;2093709;28;20086;-70
2022/09/29 00:21:39;;;;;;;8.73;7.97;;;9.70;99.90;;;;;;2092991;28;20028;-70
2022/09/29 00:22:39;;;;;;;9.35;8.43;;;9.70;99.90;;;;;;2093841;28;20033;-70
2022/09/29 00:23:40;;;;;;;10.60;8.90;;;9.60;99.90;;;;;;2093402;28;20525;-70
2022/09/29 00:24:40;;;;;;;11.45;8.02;;;9.70;99.90;;;;;;2094061;28;20027;-70
2022/09/29 00:25:41;;;;;;;9.40;8.50;;;9.60;99.90;;;;;;2092646;28;20044;-70
2022/09/29 00:26:43;;;;;;;10.75;9.75;;;9.60;99.90;;;;;;2091944;28;20045;-70
2022/09/29 00:27:44;;;;;;;9.75;8.70;;;9.60;99.90;;;;;;2093722;28;20435;-70
2022/09/29 00:28:52;;;;;;;15.13;10.43;;;9.70;99.90;;;;;;2092003;28;20029;-70
2022/09/29 00:29:53;;;;;;;10.50;9.20;;;9.60;99.90;;;;;;2093569;28;20460;-70
2022/09/29 00:30:53;;;;;;;11.43;10.23;;;9.60;99.90;;;;;;2093070;28;20362;-70
2022/09/29 00:31:54;;;;;;;11.75;10.52;;;9.60;99.90;;;;;;2092926;28;20041;-70
2022/09/29 00:32:54;;;;;;;11.50;10.40;;;9.60;99.90;;;;;;2094578;28;20103;-70
2022/09/29 00:33:55;;;;;;;13.15;10.63;;;9.60;99.90;;;;;;2091621;28;20122;-70
2022/09/29 00:34:56;;;;;;;11.93;10.75;;;9.60;99.90;;;;;;2093953;28;20025;-70
2022/09/29 00:35:58;;;;;;;12.65;11.55;;;9.60;99.90;;;;;;2093717;28;21589;-70
2022/09/29 00:36:58;;;;;;;12.13;10.93;;;9.60;99.90;;;;;;2093619;28;20120;-70
2022/09/29 00:37:59;;;;;;;12.10;10.90;;;9.60;99.90;;;;;;2085831;28;20089;-70
2022/09/29 00:38:59;;;;;;;11.57;10.40;;;9.60;99.90;;;;;;2085478;28;20091;-70
2022/09/29 00:40:00;;;;;;;14.52;11.23;;;9.60;99.90;;;;;;2093116;28;20032;-70
2022/09/29 00:41:02;;;;;;;13.05;11.57;;;9.50;99.90;;;;;;2095876;28;20031;-70
2022/09/29 00:42:02;;;;;;;13.25;11.95;;;9.60;99.90;;;;;;2094261;28;20024;-70
2022/09/29 00:43:03;;;;;;;11.93;10.73;;;9.50;99.90;;;;;;2093446;28;20055;-70
2022/09/29 00:44:12;;;;;;;12.15;10.85;;;9.50;99.90;;;;;;2094197;28;20067;-70
2022/09/29 00:45:23;;;;;;;11.85;10.65;;;9.50;99.90;;;;;;2093987;28;20667;-70
2022/09/29 00:46:41;;;;;;;11.98;10.77;;;9.50;99.90;;;;;;2093863;28;20063;-70
2022/09/29 00:47:45;;;;;;;10.98;9.88;;;9.50;99.90;;;;;;2093198;28;20032;-70
2022/09/29 00:48:47;;;;;;;11.52;10.40;;;9.50;99.90;;;;;;2093931;28;20052;-70
2022/09/29 00:50:12;;;;;;;11.80;10.70;;;9.50;99.90;;;;;;2093191;28;20881;-70
2022/09/29 00:51:13;;;;;;;12.32;10.93;;;9.50;99.90;;;;;;2095030;28;20541;-71
2022/09/29 00:52:36;;;;;;;12.43;11.18;;;9.50;99.90;;;;;;2091332;28;20064;-70
2022/09/29 00:53:37;;;;;;;12.35;10.63;;;9.50;99.90;;;;;;2092493;28;20035;-70
2022/09/29 00:54:45;;;;;;;11.85;10.75;;;9.50;99.90;;;;;;2092668;28;20044;-70
2022/09/29 00:55:58;;;;;;;9.40;8.55;;;9.50;99.90;;;;;;2094071;28;20027;-70
2022/09/29 00:57:01;;;;;;;10.35;9.30;;;9.50;99.90;;;;;;2093908;28;20439;-70
2022/09/29 00:58:29;;;;;;;11.07;9.73;;;9.50;99.90;;;;;;2092120;28;20048;-70
2022/09/29 00:59:42;;;;;;;10.18;8.95;;;9.50;99.90;;;;;;2092189;28;20025;-70
2022/09/29 01:00:43;;;;;;;9.98;8.80;;;9.50;99.90;;;;;;2093154;28;20024;-70
2022/09/29 01:01:43;;;;;;;8.65;7.85;;;9.60;99.90;;;;;;2101450;28;20111;-71
2022/09/29 01:03:01;;;;;;;11.57;9.68;;;9.50;99.90;;;;;;2101379;28;20017;-71
2022/09/29 01:04:10;;;;;;;11.07;9.98;;;9.60;99.90;;;;;;2094069;28;20464;-71
2022/09/29 01:05:15;;;;;;;11.65;10.07;;;9.50;99.90;;;;;;2094067;28;20434;-71
2022/09/29 01:06:20;;;;;;;9.23;8.35;;;9.60;99.90;;;;;;2092921;28;20032;-71
2022/09/29 01:07:23;;;;;;;9.88;8.88;;;9.60;99.90;;;;;;2092068;28;20023;-71
2022/09/29 01:08:50;;;;;;;10.80;9.50;;;9.60;99.90;;;;;;2093217;28;20032;-71
2022/09/29 01:09:54;;;;;;;9.52;8.55;;;9.60;99.90;;;;;;2089870;28;20045;-71
2022/09/29 01:10:56;;;;;;;10.00;9.00;;;9.60;99.90;;;;;;2094660;28;20037;-71
2022/09/29 01:11:58;;;;;;;11.18;10.18;;;9.60;99.90;;;;;;2093332;28;20024;-71
2022/09/29 01:12:59;;;;;;;9.45;8.60;;;9.60;99.90;;;;;;2093077;28;20032;-71
2022/09/29 01:14:03;;;;;;;10.65;9.65;;;9.60;99.90;;;;;;2094485;28;20028;-71
2022/09/29 01:15:04;;;;;;;10.90;9.90;;;9.70;99.90;;;;;;2092819;28;20040;-71
2022/09/29 01:16:05;;;;;;;10.32;9.32;;;9.70;99.90;;;;;;2092520;28;20039;-71
2022/09/29 01:17:06;;;;;;;12.98;10.32;;;9.70;99.90;;;;;;2090721;28;20492;-71
2022/09/29 01:18:06;;;;;;;8.55;7.85;;;9.70;99.90;;;;;;2092174;28;20024;-71
2022/09/29 01:19:17;;;;;;;11.00;9.57;;;9.70;99.90;;;;;;2094122;28;20090;-71
2022/09/29 01:20:21;;;;;;;9.35;8.38;;;9.70;99.90;;;;;;2093555;28;20476;-71
2022/09/29 01:21:33;;;;;;;10.93;9.80;;;9.70;99.90;;;;;;2092339;28;20028;-71
2022/09/29 01:23:20;;;;;;;8.27;7.57;;;9.70;99.90;;;;;;2092974;28;20024;-71
2022/09/29 01:24:56;;;;;;;10.52;9.52;;;9.70;99.90;;;;;;2092852;28;20024;-71
2022/09/29 01:26:44;;;;;;;15.40;8.70;;;9.70;99.90;;;;;;2092718;28;20033;-71
2022/09/29 01:28:03;;;;;;;8.85;7.95;;;9.60;99.90;;;;;;2078865;28;20017;-71
2022/09/29 01:29:22;;;;;;;10.02;9.10;;;9.60;99.90;;;;;;2078707;28;20421;-71
2022/09/29 01:30:58;;;;;;;10.18;9.27;;;9.60;99.90;;;;;;2091336;28;20044;-71
2022/09/29 01:32:07;;;;;;;10.25;9.35;;;9.60;99.90;;;;;;2092415;28;20048;-71
2022/09/29 01:33:16;;;;;;;8.60;7.80;;;9.60;99.90;;;;;;2094331;28;20515;-71
2022/09/29 01:34:36;;;;;;;9.20;8.43;;;9.60;99.90;;;;;;2092132;28;20075;-71
2022/09/29 01:35:45;;;;;;;9.35;8.38;;;9.60;99.90;;;;;;2093441;28;20033;-71
2022/09/29 01:37:13;;;;;;;11.25;10.25;;;9.60;99.90;;;;;;2094625;28;20029;-71
2022/09/29 01:38:16;;;;;;;9.48;8.55;;;9.60;99.90;;;;;;2090705;28;20017;-71
2022/09/29 01:39:35;;;;;;;9.60;8.63;;;9.60;99.90;;;;;;2092048;28;20029;-70
2022/09/29 01:40:49;;;;;;;10.57;9.48;;;9.60;99.90;;;;;;2094166;28;20427;-70
2022/09/29 01:41:58;;;;;;;9.85;8.85;;;9.60;99.90;;;;;;2093189;28;20367;-71
2022/09/29 01:43:14;;;;;;;9.50;8.65;;;9.60;99.90;;;;;;2092142;28;20076;-71
2022/09/29 01:44:36;;;;;;;9.20;8.30;;;9.60;99.90;;;;;;2094184;28;20101;-71
2022/09/29 01:45:46;;;;;;;10.95;8.45;;;9.60;99.90;;;;;;2092399;28;20020;-71
2022/09/29 01:46:58;;;;;;;10.98;9.98;;;9.60;99.90;;;;;;2092515;28;20384;-71
2022/09/29 01:48:06;;;;;;;10.00;8.98;;;9.50;99.90;;;;;;2092751;28;20041;-71
2022/09/29 01:49:08;;;;;;;10.43;9.43;;;9.60;99.90;;;;;;2091835;28;20028;-71
2022/09/29 01:50:26;;;;;;;10.88;9.88;;;9.50;99.90;;;;;;2093510;28;20020;-71
2022/09/29 01:51:35;;;;;;;9.88;7.90;;;9.60;99.90;;;;;;2093017;28;20033;-71
2022/09/29 01:52:51;;;;;;;9.02;8.23;;;9.50;99.90;;;;;;2093064;28;20023;-72
2022/09/29 01:53:56;;;;;;;11.05;9.90;;;9.50;99.90;;;;;;2092552;28;20072;-71
2022/09/29 01:55:04;;;;;;;10.13;9.07;;;9.50;99.90;;;;;;2094701;28;20027;-71
2022/09/29 01:56:10;;;;;;;10.30;9.40;;;9.50;99.90;;;;;;2091607;28;20037;-71
2022/09/29 01:57:34;;;;;;;9.77;8.88;;;9.50;99.90;;;;;;2093283;28;20023;-71
2022/09/29 01:58:47;;;;;;;8.77;7.97;;;9.50;99.90;;;;;;2091684;28;20017;-70
2022/09/29 02:00:01;;;;;;;11.00;9.07;;;9.50;99.90;;;;;;2092800;28;20036;-70
2022/09/29 02:01:08;;;;;;;8.30;7.55;;;9.50;99.90;;;;;;2090680;28;20491;-70
2022/09/29 02:02:14;;;;;;;9.98;8.93;;;9.40;99.90;;;;;;2093792;28;20576;-70
2022/09/29 02:03:27;;;;;;;9.60;8.65;;;9.50;99.90;;;;;;2094208;28;20139;-70
2022/09/29 02:04:35;;;;;;;10.40;9.35;;;9.40;99.90;;;;;;2092810;28;20122;-70
2022/09/29 02:05:50;;;;;;;10.07;9.10;;;9.40;99.90;;;;;;2093350;28;20027;-70
2022/09/29 02:07:04;;;;;;;8.98;8.07;;;9.40;99.90;;;;;;2091060;28;20033;-70
2022/09/29 02:08:31;;;;;;;9.98;9.07;;;9.40;99.90;;;;;;2093380;28;20052;-70
2022/09/29 02:09:41;;;;;;;9.30;7.95;;;9.40;99.90;;;;;;2092534;28;20048;-70
2022/09/29 02:10:58;;;;;;;11.48;10.38;;;9.30;99.90;;;;;;2092459;28;20020;-70
2022/09/29 02:12:02;;;;;;;9.70;8.70;;;9.40;99.90;;;;;;2093756;28;20025;-71
2022/09/29 02:13:07;;;;;;;9.15;8.02;;;9.30;99.90;;;;;;2092626;28;20057;-70
2022/09/29 02:14:15;;;;;;;12.70;11.40;;;9.30;99.90;;;;;;2094514;28;20125;-70
2022/09/29 02:15:21;;;;;;;9.88;8.98;;;9.30;99.90;;;;;;2092072;28;20035;-70
2022/09/29 02:16:26;;;;;;;9.50;8.57;;;9.30;99.90;;;;;;2093441;28;20029;-71
2022/09/29 02:17:34;;;;;;;9.45;8.45;;;9.30;99.90;;;;;;2092505;28;20392;-70
2022/09/29 02:18:47;;;;;;;9.20;8.38;;;9.30;99.90;;;;;;2091171;28;20008;-70
2022/09/29 02:19:50;;;;;;;11.38;10.25;;;9.30;99.90;;;;;;2092948;28;20850;-71
2022/09/29 02:20:51;;;;;;;10.57;9.57;;;9.30;99.90;;;;;;2093074;28;20020;-71
2022/09/29 02:21:53;;;;;;;12.02;9.75;;;9.30;99.90;;;;;;2090080;28;20037;-71
2022/09/29 02:22:54;;;;;;;12.48;9.85;;;9.30;99.90;;;;;;2094067;28;20032;-70
2022/09/29 02:23:56;;;;;;;9.27;8.25;;;9.30;99.90;;;;;;2092224;28;20119;-70
2022/09/29 02:24:58;;;;;;;11.55;10.25;;;9.30;99.90;;;;;;2090866;28;20066;-71
2022/09/29 02:25:59;;;;;;;12.15;10.23;;;9.30;99.90;;;;;;2093202;28;20126;-71
2022/09/29 02:27:01;;;;;;;9.35;8.45;;;9.30;99.90;;;;;;2093519;28;20031;-70
2022/09/29 02:28:01;;;;;;;13.10;10.20;;;9.20;99.90;;;;;;2094124;28;20043;-70
2022/09/29 02:29:05;;;;;;;10.40;9.50;;;9.30;99.90;;;;;;2090718;28;20032;-70
2022/09/29 02:30:06;;;;;;;9.10;8.20;;;9.20;99.90;;;;;;2092249;28;20017;-70
2022/09/29 02:31:07;;;;;;;9.45;8.57;;;9.20;99.90;;;;;;2094567;28;20078;-70
2022/09/29 02:32:09;;;;;;;10.80;9.73;;;9.20;99.90;;;;;;2092813;28;20078;-70
2022/09/29 02:33:17;;;;;;;11.40;10.10;;;9.20;99.90;;;;;;2091971;28;20029;-70
2022/09/29 02:34:20;;;;;;;10.13;9.13;;;9.20;99.90;;;;;;2093086;28;20763;-70
2022/09/29 02:35:21;;;;;;;10.55;9.55;;;9.20;99.90;;;;;;2091263;28;20032;-70
2022/09/29 02:36:24;;;;;;;10.60;9.50;;;9.20;99.90;;;;;;2090818;28;20056;-70
2022/09/29 02:37:37;;;;;;;10.77;9.50;;;9.20;99.90;;;;;;2092892;28;20024;-71
2022/09/29 02:38:59;;;;;;;10.60;9.57;;;9.20;99.90;;;;;;2092416;28;20024;-70
2022/09/29 02:40:13;;;;;;;11.68;9.75;;;9.20;99.90;;;;;;2094252;28;20029;-70
2022/09/29 02:41:24;;;;;;;10.05;9.15;;;9.10;99.90;;;;;;2092279;28;20035;-71
2022/09/29 02:42:31;;;;;;;8.88;8.07;;;9.10;99.90;;;;;;2093032;28;20362;-71
2022/09/29 02:43:43;;;;;;;10.13;8.80;;;9.10;99.90;;;;;;2092544;28;20028;-71
2022/09/29 02:45:16;;;;;;;10.80;9.63;;;9.10;99.90;;;;;;2092028;28;20542;-71
2022/09/29 02:47:04;;;;;;;12.48;9.68;;;9.10;99.90;;;;;;2092807;28;20035;-70
2022/09/29 02:48:12;;;;;;;10.05;9.07;;;9.00;99.90;;;;;;2091784;28;20218;-70
2022/09/29 02:49:42;;;;;;;11.05;10.00;;;9.00;99.90;;;;;;2091180;28;20515;-70
2022/09/29 02:50:45;;;;;;;12.20;10.97;;;9.00;99.90;;;;;;2091388;28;20038;-70
2022/09/29 02:52:00;;;;;;;12.30;9.52;;;9.00;99.90;;;;;;2092232;28;20263;-70
2022/09/29 02:53:31;;;;;;;9.88;9.02;;;9.00;99.90;;;;;;2092663;28;20032;-70
2022/09/29 02:54:48;;;;;;;9.77;8.85;;;9.00;99.90;;;;;;2085767;28;20787;-71
2022/09/29 02:56:04;;;;;;;11.85;9.82;;;9.00;99.90;;;;;;2090969;28;20029;-71
2022/09/29 02:57:32;;;;;;;11.07;10.10;;;9.00;99.90;;;;;;2093926;28;20036;-71
2022/09/29 02:58:45;;;;;;;10.07;9.18;;;9.00;99.90;;;;;;2093754;28;20038;-70
2022/09/29 03:00:09;;;;;;;10.13;9.23;;;9.00;99.90;;;;;;2091328;28;20073;-70
2022/09/29 03:01:10;;;;;;;11.73;9.75;;;8.90;99.90;;;;;;2093015;28;20036;-70
2022/09/29 03:02:12;;;;;;;11.23;10.00;;;8.90;99.90;;;;;;2093485;28;20119;-70
2022/09/29 03:03:12;;;;;;;11.20;10.10;;;9.00;99.90;;;;;;2094240;28;20036;-70
2022/09/29 03:04:13;;;;;;;11.55;10.45;;;9.00;99.90;;;;;;2091266;28;20017;-71
2022/09/29 03:05:17;;;;;;;10.95;9.75;;;9.00;99.90;;;;;;2092168;28;20132;-71
2022/09/29 03:06:20;;;;;;;11.68;10.50;;;9.00;99.90;;;;;;2093016;28;20024;-70
2022/09/29 03:07:21;;;;;;;11.90;10.85;;;9.00;99.90;;;;;;2091885;28;20090;-70
2022/09/29 03:08:21;;;;;;;11.25;10.20;;;9.00;99.90;;;;;;2092421;28;20063;-70
2022/09/29 03:09:22;;;;;;;10.88;9.43;;;9.00;99.90;;;;;;2091186;28;20028;-70
2022/09/29 03:10:23;;;;;;;10.45;9.52;;;9.00;99.90;;;;;;2093379;28;20043;-70
2022/09/29 03:11:23;;;;;;;13.23;11.13;;;9.00;99.90;;;;;;2094369;28;20025;-71
2022/09/29 03:12:24;;;;;;;10.95;9.95;;;9.00;99.90;;;;;;2094718;28;20102;-70
2022/09/29 03:13:25;;;;;;;10.38;9.32;;;9.00;99.90;;;;;;2092208;28;20025;-70
2022/09/29 03:14:25;;;;;;;10.45;9.43;;;9.00;99.90;;;;;;2091243;28;20031;-70
2022/09/29 03:15:26;;;;;;;10.82;9.85;;;9.00;99.90;;;;;;2091298;28;20040;-70
2022/09/29 03:16:26;;;;;;;11.05;9.93;;;9.00;99.90;;;;;;2092141;28;20047;-71
2022/09/29 03:17:27;;;;;;;10.43;9.32;;;9.00;99.90;;;;;;2093219;28;20808;-71
2022/09/29 03:18:28;;;;;;;10.73;9.75;;;9.00;99.90;;;;;;2094544;28;20024;-71
2022/09/29 03:19:28;;;;;;;11.13;10.02;;;9.00;99.90;;;;;;2092460;28;20031;-70
2022/09/29 03:20:29;;;;;;;10.95;10.02;;;9.00;99.90;;;;;;2094839;28;20082;-70
2022/09/29 03:21:33;;;;;;;12.35;11.07;;;9.00;99.90;;;;;;2095138;28;20094;-71
2022/09/29 03:22:33;;;;;;;11.23;10.20;;;9.00;99.90;;;;;;2092240;28;20028;-71
2022/09/29 03:23:34;;;;;;;12.23;10.80;;;9.00;99.90;;;;;;2095244;28;20033;-71
2022/09/29 03:24:35;;;;;;;10.85;9.13;;;9.00;99.90;;;;;;2092428;28;20586;-71
2022/09/29 03:25:35;;;;;;;10.27;9.38;;;9.00;99.90;;;;;;2094411;28;20099;-71
2022/09/29 03:26:36;;;;;;;10.60;9.63;;;9.00;99.90;;;;;;2093945;28;20099;-70
2022/09/29 03:27:37;;;;;;;11.75;10.60;;;9.00;99.90;;;;;;2095115;28;20507;-71
2022/09/29 03:28:38;;;;;;;10.80;9.75;;;9.00;99.90;;;;;;2094606;28;20105;-70
2022/09/29 03:29:38;;;;;;;10.68;9.68;;;9.00;99.90;;;;;;2093753;28;20380;-70
2022/09/29 03:30:39;;;;;;;10.52;9.63;;;9.00;99.90;;;;;;2092626;28;20074;-71
2022/09/29 03:31:40;;;;;;;10.93;9.88;;;9.00;99.90;;;;;;2092134;28;20128;-71
2022/09/29 03:32:44;;;;;;;10.15;9.15;;;8.90;99.90;;;;;;2094080;28;20040;-71
2022/09/29 03:33:45;;;;;;;10.75;9.73;;;9.00;99.90;;;;;;2093930;28;20038;-71
2022/09/29 03:34:45;;;;;;;11.55;9.75;;;9.00;99.90;;;;;;2094258;28;20059;-71
2022/09/29 03:35:46;;;;;;;11.73;10.63;;;9.00;99.90;;;;;;2093347;28;20024;-71
2022/09/29 03:36:46;;;;;;;11.40;10.07;;;8.90;99.90;;;;;;2093221;28;20081;-71
2022/09/29 03:37:47;;;;;;;24.50;10.15;;;8.90;99.90;;;;;;2094566;28;20021;-71
2022/09/29 03:38:48;;;;;;;13.02;9.73;;;8.90;99.90;;;;;;2095697;28;20521;-71
2022/09/29 03:39:48;;;;;;;12.10;10.80;;;8.90;99.90;;;;;;2091320;28;20017;-71
2022/09/29 03:40:49;;;;;;;10.75;9.68;;;8.90;99.90;;;;;;2096110;28;20382;-71
2022/09/29 03:41:50;;;;;;;11.05;9.95;;;8.90;99.90;;;;;;2093925;28;20021;-71
2022/09/29 03:42:50;;;;;;;10.35;9.23;;;8.90;99.90;;;;;;2092703;28;20117;-70
2022/09/29 03:43:51;;;;;;;11.10;10.05;;;8.90;99.90;;;;;;2092391;28;20036;-70
2022/09/29 03:44:51;;;;;;;10.65;9.48;;;8.90;99.90;;;;;;2093748;28;20033;-70
2022/09/29 03:45:54;;;;;;;10.55;9.45;;;8.90;99.90;;;;;;2091921;28;20763;-71
2022/09/29 03:46:54;;;;;;;10.05;9.05;;;8.90;99.90;;;;;;2092740;28;20036;-71
2022/09/29 03:47:55;;;;;;;10.32;9.32;;;8.90;99.90;;;;;;2092457;28;20036;-71
2022/09/29 03:48:55;;;;;;;13.38;9.82;;;8.90;99.90;;;;;;2093316;28;20032;-70
2022/09/29 03:49:56;;;;;;;11.30;10.20;;;8.90;99.90;;;;;;2094087;28;20075;-71
2022/09/29 03:50:57;;;;;;;10.15;9.15;;;8.90;99.90;;;;;;2092111;28;20036;-71
2022/09/29 03:51:57;;;;;;;9.80;8.80;;;8.90;99.90;;;;;;2095049;28;20021;-71
2022/09/29 03:52:58;;;;;;;11.02;10.02;;;8.90;99.90;;;;;;2092787;28;20013;-71
2022/09/29 03:53:58;;;;;;;9.45;8.45;;;8.90;99.90;;;;;;2094118;28;20029;-70
2022/09/29 03:54:59;;;;;;;12.02;9.77;;;8.90;99.90;;;;;;2095087;28;20023;-70
2022/09/29 03:56:00;;;;;;;9.32;8.20;;;8.90;99.90;;;;;;2094019;28;20055;-70
2022/09/29 03:57:00;;;;;;;10.02;8.90;;;8.90;99.90;;;;;;2094251;28;20482;-70
2022/09/29 03:58:01;;;;;;;10.25;9.30;;;8.90;99.90;;;;;;2093196;28;20048;-70
2022/09/29 03:59:04;;;;;;;10.55;9.07;;;8.90;99.90;;;;;;2090968;28;20094;-70
2022/09/29 04:00:05;;;;;;;9.65;8.80;;;8.90;99.90;;;;;;2091673;28;20025;-70
2022/09/29 04:01:06;;;;;;;10.00;9.00;;;8.80;99.90;;;;;;2093152;28;20090;-70
2022/09/29 04:02:06;;;;;;;11.10;10.02;;;8.80;99.90;;;;;;2091809;28;20052;-70
2022/09/29 04:03:07;;;;;;;9.57;8.07;;;8.80;99.90;;;;;;2094861;28;20048;-71
2022/09/29 04:04:09;;;;;;;8.85;7.95;;;8.80;99.90;;;;;;2093001;28;20043;-71
2022/09/29 04:05:10;;;;;;;10.15;8.73;;;8.80;99.90;;;;;;2094301;28;20060;-71
2022/09/29 04:06:10;;;;;;;10.52;9.52;;;8.80;99.90;;;;;;2092409;28;20033;-71
2022/09/29 04:07:11;;;;;;;11.15;9.23;;;8.80;99.90;;;;;;2094245;28;20144;-71
2022/09/29 04:08:12;;;;;;;9.32;8.43;;;8.80;99.90;;;;;;2092807;28;20229;-71
2022/09/29 04:09:12;;;;;;;9.35;8.45;;;8.80;99.90;;;;;;2092742;28;20021;-72
2022/09/29 04:10:13;;;;;;;9.68;8.30;;;8.80;99.90;;;;;;2093801;28;20032;-70
2022/09/29 04:11:14;;;;;;;8.65;7.72;;;8.80;99.90;;;;;;2093564;28;20539;-70
2022/09/29 04:12:14;;;;;;;10.02;9.10;;;8.80;99.90;;;;;;2093387;28;20039;-70
2022/09/29 04:13:15;;;;;;;8.48;7.78;;;8.80;99.90;;;;;;2094854;28;20456;-70
2022/09/29 04:14:15;;;;;;;8.75;7.93;;;8.80;99.90;;;;;;2093699;28;20021;-70
2022/09/29 04:15:16;;;;;;;8.48;7.55;;;8.70;99.90;;;;;;2093142;28;20033;-70
2022/09/29 04:16:16;;;;;;;8.48;7.78;;;8.70;99.90;;;;;;2093166;28;20894;-71
2022/09/29 04:17:17;;;;;;;9.57;8.70;;;8.70;99.90;;;;;;2093789;28;20063;-71
2022/09/29 04:18:17;;;;;;;10.70;8.50;;;8.70;99.90;;;;;;2094192;28;20017;-70
2022/09/29 04:19:18;;;;;;;9.38;8.30;;;8.70;99.90;;;;;;2092675;28;20135;-71
2022/09/29 04:20:18;;;;;;;9.90;9.00;;;8.70;99.90;;;;;;2094361;28;20029;-70
2022/09/29 04:21:19;;;;;;;11.65;8.52;;;8.70;99.90;;;;;;2092390;28;20082;-70
2022/09/29 04:22:20;;;;;;;9.82;8.93;;;8.70;99.90;;;;;;2093561;28;20465;-70
2022/09/29 04:23:21;;;;;;;11.02;9.60;;;8.70;99.90;;;;;;2096776;28;20115;-70
2022/09/29 04:24:21;;;;;;;9.13;8.15;;;8.70;99.90;;;;;;2095449;28;20028;-70
2022/09/29 04:25:22;;;;;;;9.35;8.45;;;8.70;99.90;;;;;;2092349;28;20097;-70
2022/09/29 04:26:22;;;;;;;9.15;8.20;;;8.70;99.90;;;;;;2093611;28;20031;-71
2022/09/29 04:27:23;;;;;;;9.80;8.90;;;8.70;99.90;;;;;;2093721;28;20034;-71
2022/09/29 04:28:24;;;;;;;10.88;8.48;;;8.70;99.90;;;;;;2092693;28;20028;-71
2022/09/29 04:29:25;;;;;;;9.45;8.65;;;8.70;99.90;;;;;;2093355;28;20031;-71
2022/09/29 04:30:25;;;;;;;10.02;9.13;;;8.60;99.90;;;;;;2091746;28;20063;-71
2022/09/29 04:31:26;;;;;;;9.38;8.27;;;8.60;99.90;;;;;;2093286;28;20043;-71
2022/09/29 04:32:26;;;;;;;9.43;8.32;;;8.60;99.90;;;;;;2093222;28;20028;-70
2022/09/29 04:33:28;;;;;;;12.65;9.85;;;8.60;99.90;;;;;;2091961;28;20106;-70
2022/09/29 04:34:29;;;;;;;11.02;9.93;;;8.60;99.90;;;;;;2092668;28;20369;-71
2022/09/29 04:35:29;;;;;;;10.02;8.27;;;8.60;99.90;;;;;;2092217;28;20029;-71
2022/09/29 04:36:30;;;;;;;10.48;9.35;;;8.60;99.90;;;;;;2093950;28;20029;-71
2022/09/29 04:37:31;;;;;;;11.20;9.73;;;8.60;99.90;;;;;;2091818;28;20120;-71
2022/09/29 04:38:31;;;;;;;8.90;8.10;;;8.60;99.90;;;;;;2093398;28;20724;-71
2022/09/29 04:39:32;;;;;;;9.32;8.25;;;8.60;99.90;;;;;;2093818;28;20028;-71
2022/09/29 04:40:33;;;;;;;9.88;8.98;;;8.60;99.90;;;;;;2095255;28;20504;-71
2022/09/29 04:41:35;;;;;;;10.80;9.80;;;8.60;99.90;;;;;;2093156;28;20445;-71
2022/09/29 04:42:36;;;;;;;9.60;8.52;;;8.60;99.90;;;;;;2093112;28;20131;-71
2022/09/29 04:43:36;;;;;;;11.18;10.07;;;8.60;99.90;;;;;;2092204;28;20030;-71
2022/09/29 04:44:37;;;;;;;9.95;8.98;;;8.60;99.90;;;;;;2092904;28;20016;-71
2022/09/29 04:45:37;;;;;;;9.00;8.10;;;8.60;99.90;;;;;;2093203;28;20434;-71
2022/09/29 04:46:38;;;;;;;9.88;8.88;;;8.60;99.90;;;;;;2094050;28;20031;-71
2022/09/29 04:47:39;;;;;;;8.55;7.70;;;8.50;99.90;;;;;;2092759;28;20064;-71
2022/09/29 04:48:39;;;;;;;7.78;7.07;;;8.60;99.90;;;;;;2101130;28;20036;-71
2022/09/29 04:49:40;;;;;;;8.30;7.57;;;8.50;99.90;;;;;;2101295;28;20512;-71
2022/09/29 04:50:41;;;;;;;8.95;8.02;;;8.50;99.90;;;;;;2091991;28;20054;-71
2022/09/29 04:51:42;;;;;;;9.77;8.88;;;8.50;99.90;;;;;;2094876;28;20529;-71
2022/09/29 04:52:43;;;;;;;9.38;8.40;;;8.50;99.90;;;;;;2093189;28;20065;-71
2022/09/29 04:53:43;;;;;;;10.80;9.90;;;8.50;99.90;;;;;;2091936;28;20025;-71
2022/09/29 04:54:44;;;;;;;9.52;8.15;;;8.50;99.90;;;;;;2094069;28;20122;-71
2022/09/29 04:55:44;;;;;;;9.63;8.63;;;8.50;99.90;;;;;;2091788;28;20040;-71
2022/09/29 04:56:49;;;;;;;10.55;8.90;;;8.50;99.90;;;;;;2094967;28;20458;-72
2022/09/29 04:57:49;;;;;;;10.38;9.35;;;8.50;99.90;;;;;;2092206;28;20033;-71
2022/09/29 04:58:50;;;;;;;13.52;9.13;;;8.50;99.90;;;;;;2090068;28;20111;-71
2022/09/29 04:59:51;;;;;;;8.98;8.07;;;8.50;99.90;;;;;;2092007;28;20078;-71
2022/09/29 05:00:52;;;;;;;10.77;9.15;;;8.50;99.90;;;;;;2093505;28;20115;-71
2022/09/29 05:01:52;;;;;;;10.10;8.30;;;8.40;99.90;;;;;;2091506;28;20032;-71
2022/09/29 05:02:53;;;;;;;12.23;9.73;;;8.40;99.90;;;;;;2093025;28;20523;-71
2022/09/29 05:03:53;;;;;;;9.25;8.27;;;8.40;99.90;;;;;;2092459;28;20032;-71
2022/09/29 05:04:54;;;;;;;9.20;8.40;;;8.40;99.90;;;;;;2094628;28;20025;-71
2022/09/29 05:05:55;;;;;;;10.15;9.02;;;8.40;99.90;;;;;;2093212;28;20029;-71
2022/09/29 05:06:55;;;;;;;8.00;7.30;;;8.40;99.90;;;;;;2092582;28;20028;-71
2022/09/29 05:07:58;;;;;;;10.52;9.35;;;8.40;99.90;;;;;;2092389;28;20029;-71
2022/09/29 05:08:58;;;;;;;10.15;8.52;;;8.40;99.90;;;;;;2094013;28;20031;-71
2022/09/29 05:09:59;;;;;;;9.35;8.18;;;8.40;99.90;;;;;;2092690;28;20025;-71
2022/09/29 05:11:06;;;;;;;9.35;8.38;;;8.40;99.90;;;;;;2094241;28;20050;-71
2022/09/29 05:12:07;;;;;;;8.85;8.15;;;8.30;99.90;;;;;;2095736;28;20017;-71
2022/09/29 05:13:07;;;;;;;9.45;8.45;;;8.30;99.90;;;;;;2095440;28;20091;-71
2022/09/29 05:14:09;;;;;;;9.40;8.50;;;8.30;99.90;;;;;;2093351;28;20701;-71
2022/09/29 05:15:10;;;;;;;9.45;8.65;;;8.30;99.90;;;;;;2095963;28;20033;-71
2022/09/29 05:16:11;;;;;;;10.65;9.52;;;8.30;99.90;;;;;;2092206;28;20031;-71
2022/09/29 05:17:11;;;;;;;9.80;8.80;;;8.30;99.90;;;;;;2093135;28;20104;-71
2022/09/29 05:18:12;;;;;;;10.20;9.02;;;8.30;99.90;;;;;;2093462;28;20025;-71
2022/09/29 05:19:12;;;;;;;10.02;8.13;;;8.30;99.90;;;;;;2092421;28;20017;-71
2022/09/29 05:20:15;;;;;;;8.75;7.97;;;8.30;99.90;;;;;;2092458;28;20025;-71
2022/09/29 05:21:16;;;;;;;12.02;8.40;;;8.30;99.90;;;;;;2092323;28;20036;-71
2022/09/29 05:22:23;;;;;;;9.10;7.72;;;8.20;99.90;;;;;;2092882;28;20024;-71
2022/09/29 05:23:23;;;;;;;10.27;9.23;;;8.20;99.90;;;;;;2093169;28;20028;-71
2022/09/29 05:24:25;;;;;;;8.98;8.07;;;8.20;99.90;;;;;;2092007;28;20115;-71
2022/09/29 05:25:26;;;;;;;12.15;10.15;;;8.20;99.90;;;;;;2094046;28;20464;-71
2022/09/29 05:26:27;;;;;;;10.75;9.35;;;8.20;99.90;;;;;;2093007;28;20039;-71
2022/09/29 05:27:27;;;;;;;9.48;8.35;;;8.20;99.90;;;;;;2093213;28;20111;-71
2022/09/29 05:28:28;;;;;;;8.65;7.93;;;8.20;99.90;;;;;;2092862;28;20567;-71
2022/09/29 05:29:29;;;;;;;9.35;8.38;;;8.20;99.90;;;;;;2091338;28;20028;-71
2022/09/29 05:30:29;;;;;;;8.80;7.90;;;8.20;99.90;;;;;;2093787;28;20391;-71
2022/09/29 05:31:30;;;;;;;10.38;8.70;;;8.20;99.90;;;;;;2092812;28;20574;-71
2022/09/29 05:32:30;;;;;;;8.80;7.95;;;8.20;99.90;;;;;;2093014;28;20032;-71
2022/09/29 05:33:32;;;;;;;8.50;7.70;;;8.20;99.90;;;;;;2090553;28;20566;-71
2022/09/29 05:34:32;;;;;;;12.25;9.75;;;8.20;99.90;;;;;;2093503;28;20056;-71
2022/09/29 05:35:33;;;;;;;10.85;9.75;;;8.20;99.90;;;;;;2093907;28;20083;-72
2022/09/29 05:36:33;;;;;;;8.75;7.90;;;8.10;99.90;;;;;;2091862;28;20081;-71
2022/09/29 05:37:34;;;;;;;9.95;8.88;;;8.10;99.90;;;;;;2091641;28;20032;-71